Time;durP1;ratioP1;P1;durP2;ratioP2;P2;SDS_P1;SDS_P2;PMS_P1;PMS_P2;Temp;Humidity;BMP_temperature;BMP_pressure;BME280_temperature;BME280_humidity;BME280_pressure;Samples;Min_cycle;Max_cycle;Signal;HPM_P1;HPM_P2
2022/05/25 00:00:30;;;;;;;;;;;;;;;21.08;46.14;101219.75;6157559;23;19916;-79
2022/05/25 00:02:56;;;;;;;;;;;;;;;21.06;46.22;101217.16;6131324;23;19995;-78
2022/05/25 00:05:21;;;;;;;;;;;;;;;21.05;46.31;101215.41;6131175;23;19915;-79
2022/05/25 00:07:46;;;;;;;;;;;;;;;21.06;46.43;101213.69;6157516;23;19915;-79
2022/05/25 00:10:12;;;;;;;;;;;;;;;21.05;46.33;101212.78;6131466;23;19909;-79
2022/05/25 00:12:38;;;;;;;;;;;;;;;21.05;46.32;101206.72;6131499;23;19909;-79
2022/05/25 00:15:04;;;;;;;;;;;;;;;21.05;46.44;101217.19;6131416;23;19967;-79
2022/05/25 00:17:31;;;;;;;;;;;;;;;21.04;46.35;101218.94;6130552;23;21301;-79
2022/05/25 00:19:59;;;;;;;;;;;;;;;21.04;46.38;101218.94;6157304;23;19968;-79
2022/05/25 00:22:25;;;;;;;;;;;;;;;21.06;46.25;101224.16;6100437;23;20249;-79
2022/05/25 00:24:51;;;;;;;;;;;;;;;21.04;46.29;101218.09;6102042;23;19917;-79
2022/05/25 00:27:17;;;;;;;;;;;;;;;21.05;46.39;101220.66;6101893;23;19932;-79
2022/05/25 00:29:43;;;;;;;;;;;;;;;21.06;46.35;101221.53;6101995;23;19945;-79
2022/05/25 00:32:09;;;;;;;;;;;;;;;21.05;46.43;101225.88;6127818;23;19956;-79
2022/05/25 00:34:34;;;;;;;;;;;;;;;21.02;46.46;101231.19;6127813;23;19928;-79
2022/05/25 00:36:59;;;;;;;;;;;;;;;21.03;46.48;101227.66;6102274;23;19917;-79
2022/05/25 00:39:25;;;;;;;;;;;;;;;21.04;46.43;101229.41;6101743;23;19913;-79
2022/05/25 00:41:50;;;;;;;;;;;;;;;21.03;46.34;101227.66;6128284;23;19909;-79
2022/05/25 00:44:16;;;;;;;;;;;;;;;21.04;46.51;101229.41;6101947;23;19908;-79
2022/05/25 00:46:41;;;;;;;;;;;;;;;21.03;46.59;101235.50;6101652;23;19916;-80
2022/05/25 00:49:12;;;;;;;;;;;;;;;21.02;46.49;101230.31;6101721;23;19913;-80
2022/05/25 00:51:47;;;;;;;;;;;;;;;21.01;46.55;101239.91;6101735;23;19916;-79
2022/05/25 00:54:24;;;;;;;;;;;;;;;21.01;46.74;101232.06;6101953;23;19909;-79
2022/05/25 00:56:51;;;;;;;;;;;;;;;21.01;46.46;101239.03;6127801;23;19940;-79
2022/05/25 00:59:18;;;;;;;;;;;;;;;21.01;46.49;101239.91;6102346;23;19955;-84
2022/05/25 01:01:44;;;;;;;;;;;;;;;21.00;46.53;101234.72;6128309;23;19909;-84
2022/05/25 01:04:10;;;;;;;;;;;;;;;21.00;46.41;101243.44;6102273;23;19916;-84
2022/05/25 01:06:54;;;;;;;;;;;;;;;21.00;46.61;101245.19;6127921;23;20321;-84
2022/05/25 01:09:31;;;;;;;;;;;;;;;21.00;46.32;101239.94;6101970;23;19909;-84
2022/05/25 01:12:09;;;;;;;;;;;;;;;20.99;46.70;101233.88;6101553;23;19909;-84
2022/05/25 01:14:40;;;;;;;;;;;;;;;20.98;46.61;101232.13;6101232;23;19909;-83
2022/05/25 01:17:38;;;;;;;;;;;;;;;20.98;46.68;101245.19;6101746;23;19913;-84
2022/05/25 01:20:10;;;;;;;;;;;;;;;20.98;46.66;101242.59;6054287;23;19909;-83
2022/05/25 01:22:51;;;;;;;;;;;;;;;20.97;46.51;101243.50;6136548;23;19921;-79
2022/05/25 01:25:39;;;;;;;;;;;;;;;20.98;46.62;101245.19;6130913;23;19931;-79
2022/05/25 01:28:23;;;;;;;;;;;;;;;20.98;46.66;101246.97;6156806;23;20240;-79
2022/05/25 01:30:52;;;;;;;;;;;;;;;20.96;46.67;101247.84;6130906;23;19984;-79
2022/05/25 01:33:27;;;;;;;;;;;;;;;20.98;46.75;101242.59;6130664;23;19909;-79
2022/05/25 01:36:10;;;;;;;;;;;;;;;20.96;46.78;101242.59;6130683;23;19913;-79
2022/05/25 01:38:49;;;;;;;;;;;;;;;20.96;46.65;101239.13;6156624;23;19932;-79
2022/05/25 01:41:20;;;;;;;;;;;;;;;20.95;46.64;101245.28;6157422;23;19912;-81
2022/05/25 01:43:51;;;;;;;;;;;;;;;20.95;46.78;101240.91;6131082;23;19912;-80
2022/05/25 01:46:25;;;;;;;;;;;;;;;20.95;46.67;101245.28;6130871;23;20313;-80
2022/05/25 01:48:52;;;;;;;;;;;;;;;20.94;46.65;101244.38;6130673;23;20325;-80
2022/05/25 01:51:19;;;;;;;;;;;;;;;20.95;46.76;101250.50;6130656;23;20292;-81
2022/05/25 01:53:48;;;;;;;;;;;;;;;20.94;46.66;101254.84;6155080;23;19912;-80
2022/05/25 01:56:15;;;;;;;;;;;;;;;20.93;46.80;101253.13;6156878;23;19920;-80
2022/05/25 01:58:43;;;;;;;;;;;;;;;20.94;46.77;101261.84;6155299;23;20277;-79
2022/05/25 02:01:09;;;;;;;;;;;;;;;20.93;46.89;101260.97;6156849;23;19940;-79
2022/05/25 02:06:27;;;;;;;;;;;;;;;20.93;46.85;101267.97;6135172;23;19959;-85
2022/05/25 02:08:52;;;;;;;;;;;;;;;20.93;46.82;101260.97;6157074;23;19908;-84
2022/05/25 02:11:30;;;;;;;;;;;;;;;20.92;46.83;101258.38;6130886;23;19932;-83
2022/05/25 02:14:01;;;;;;;;;;;;;;;20.94;46.80;101259.22;6157013;23;20348;-85
2022/05/25 02:16:30;;;;;;;;;;;;;;;20.92;46.77;101259.25;6156719;23;20335;-84
2022/05/25 02:19:08;;;;;;;;;;;;;;;20.92;46.88;101261.00;6130610;23;19908;-83
2022/05/25 02:21:34;;;;;;;;;;;;;;;20.91;46.88;101268.00;6130910;23;20437;-84
2022/05/25 02:24:02;;;;;;;;;;;;;;;20.91;46.73;101267.13;6130706;23;19917;-84
2022/05/25 02:26:29;;;;;;;;;;;;;;;20.89;46.98;101268.91;6131468;23;19908;-84
2022/05/25 02:28:54;;;;;;;;;;;;;;;20.90;46.78;101268.88;6158824;23;19936;-84
2022/05/25 02:31:22;;;;;;;;;;;;;;;20.89;46.93;101266.28;6132677;23;20348;-84
2022/05/25 02:33:49;;;;;;;;;;;;;;;20.90;46.85;101270.63;6132538;23;20375;-85
2022/05/25 02:36:15;;;;;;;;;;;;;;;20.89;46.91;101268.91;6158415;23;19987;-85
2022/05/25 02:38:42;;;;;;;;;;;;;;;20.90;46.86;101270.63;6158764;23;19909;-85
2022/05/25 02:41:12;;;;;;;;;;;;;;;20.88;46.98;101262.81;6132369;23;19955;-85
2022/05/25 02:43:38;;;;;;;;;;;;;;;20.88;46.99;101267.16;6132536;23;19909;-85
2022/05/25 02:46:04;;;;;;;;;;;;;;;20.88;46.94;101267.16;6108013;23;20356;-84
2022/05/25 02:48:29;;;;;;;;;;;;;;;20.88;46.83;101269.78;6108084;23;20345;-84
2022/05/25 02:50:54;;;;;;;;;;;;;;;20.88;46.99;101269.78;6158319;23;20325;-84
2022/05/25 02:53:22;;;;;;;;;;;;;;;20.88;46.96;101275.00;6107867;23;20396;-79
2022/05/25 02:55:50;;;;;;;;;;;;;;;20.87;46.86;101271.53;6157983;23;20245;-79
2022/05/25 02:58:16;;;;;;;;;;;;;;;20.88;46.86;101275.91;6158275;23;19909;-79
2022/05/25 03:00:42;;;;;;;;;;;;;;;20.88;46.98;101280.25;6158042;23;20303;-79
2022/05/25 03:03:07;;;;;;;;;;;;;;;20.87;46.85;101274.16;6132092;23;19936;-79
2022/05/25 03:05:32;;;;;;;;;;;;;;;20.87;47.18;101279.38;6132070;23;19912;-79
2022/05/25 03:07:58;;;;;;;;;;;;;;;20.87;46.94;101278.53;6131755;23;19916;-79
2022/05/25 03:10:23;;;;;;;;;;;;;;;20.85;47.04;101280.31;6131828;23;19919;-78
2022/05/25 03:12:48;;;;;;;;;;;;;;;20.85;46.88;101278.56;6132082;23;19918;-78
2022/05/25 03:15:14;;;;;;;;;;;;;;;20.83;47.02;101279.47;6132256;23;19923;-78
2022/05/25 03:17:40;;;;;;;;;;;;;;;20.85;47.05;101288.16;6158170;23;19908;-79
2022/05/25 03:20:05;;;;;;;;;;;;;;;20.86;46.89;101287.25;6158149;23;20237;-80
2022/05/25 03:22:34;;;;;;;;;;;;;;;20.85;46.89;101290.78;6131561;23;20015;-79
2022/05/25 03:24:59;;;;;;;;;;;;;;;20.85;47.05;101293.38;6158206;23;19915;-80
2022/05/25 03:27:25;;;;;;;;;;;;;;;20.85;47.00;101301.25;6131705;23;19940;-79
2022/05/25 03:29:50;;;;;;;;;;;;;;;20.83;47.06;101290.78;6107456;23;19919;-79
2022/05/25 03:32:15;;;;;;;;;;;;;;;20.83;47.02;101290.78;6131777;23;19909;-84
2022/05/25 03:34:40;;;;;;;;;;;;;;;20.84;47.04;101303.00;6158797;23;19908;-84
2022/05/25 03:37:06;;;;;;;;;;;;;;;20.84;46.93;101305.59;6107476;23;20321;-85
2022/05/25 03:39:31;;;;;;;;;;;;;;;20.85;47.05;101301.25;6107528;23;20240;-85
2022/05/25 03:41:58;;;;;;;;;;;;;;;20.83;47.03;101308.25;6107672;23;19912;-83
2022/05/25 03:44:23;;;;;;;;;;;;;;;20.83;46.90;101303.88;6158482;23;19915;-84
2022/05/25 03:46:49;;;;;;;;;;;;;;;20.83;46.99;101308.25;6107996;23;19912;-84
2022/05/25 03:49:14;;;;;;;;;;;;;;;20.84;47.08;101305.59;6157906;23;19924;-85
2022/05/25 03:51:39;;;;;;;;;;;;;;;20.84;47.00;101305.59;6158170;23;19943;-84
2022/05/25 03:54:05;;;;;;;;;;;;;;;20.83;47.09;101309.09;6131732;23;19913;-79
2022/05/25 03:56:30;;;;;;;;;;;;;;;20.85;46.96;101309.09;6131703;23;19992;-80
2022/05/25 03:58:55;;;;;;;;;;;;;;;20.83;47.03;101306.47;6107068;23;19919;-80
2022/05/25 04:01:20;;;;;;;;;;;;;;;20.83;46.90;101303.88;6131536;23;19908;-79
2022/05/25 04:03:46;;;;;;;;;;;;;;;20.84;46.97;101305.59;6155820;23;19952;-79
2022/05/25 04:06:11;;;;;;;;;;;;;;;20.86;47.03;101309.06;6157464;23;19908;-79
2022/05/25 04:08:36;;;;;;;;;;;;;;;20.85;47.00;101307.31;6157615;23;19909;-79
2022/05/25 04:11:01;;;;;;;;;;;;;;;20.85;46.86;101302.09;6131161;23;19909;-79
2022/05/25 04:13:27;;;;;;;;;;;;;;;20.87;46.98;101307.31;6157611;23;19944;-79
2022/05/25 04:15:54;;;;;;;;;;;;;;;20.86;46.85;101306.44;6131073;23;20317;-79
2022/05/25 04:18:20;;;;;;;;;;;;;;;20.86;47.06;101305.56;6158136;23;19908;-79
2022/05/25 04:20:48;;;;;;;;;;;;;;;20.87;46.95;101307.31;6157391;23;19921;-79
2022/05/25 04:23:14;;;;;;;;;;;;;;;20.88;46.84;101312.53;6157059;23;20291;-80
2022/05/25 04:25:40;;;;;;;;;;;;;;;20.90;46.78;101309.88;6131223;23;19913;-79
2022/05/25 04:28:06;;;;;;;;;;;;;;;20.89;46.98;101310.75;6157404;23;19908;-79
2022/05/25 04:30:31;;;;;;;;;;;;;;;20.92;46.84;101308.09;6106549;23;19912;-78
2022/05/25 04:32:56;;;;;;;;;;;;;;;20.93;46.62;101297.59;6157384;23;20273;-80
2022/05/25 04:35:22;;;;;;;;;;;;;;;20.94;46.87;101298.47;6155749;23;19913;-80
2022/05/25 04:37:53;;;;;;;;;;;;;;;20.95;46.68;101300.22;6157624;23;19909;-78
2022/05/25 04:40:28;;;;;;;;;;;;;;;20.97;46.77;101301.06;6107871;23;19920;-78
2022/05/25 04:42:54;;;;;;;;;;;;;;;20.97;46.85;101301.06;6131080;23;19908;-79
2022/05/25 04:45:21;;;;;;;;;;;;;;;20.98;46.78;101294.91;6130966;23;19912;-79
2022/05/25 04:47:46;;;;;;;;;;;;;;;20.98;46.79;101294.91;6130888;23;19912;-78
2022/05/25 04:50:12;;;;;;;;;;;;;;;21.02;46.73;101293.97;6130916;23;20336;-79
2022/05/25 04:52:38;;;;;;;;;;;;;;;21.11;46.58;101293.81;6106343;23;19912;-78
2022/05/25 04:55:04;;;;;;;;;;;;;;;21.27;46.32;101298.78;6130841;23;19915;-79
2022/05/25 04:57:30;;;;;;;;;;;;;;;21.37;45.89;101305.59;6130768;23;19940;-78
2022/05/25 04:59:55;;;;;;;;;;;;;;;;;;6106427;23;20248;-78
2022/05/25 05:02:21;;;;;;;;;;;;;;;21.59;45.63;101307.84;6130834;23;19983;-78
2022/05/25 05:04:47;;;;;;;;;;;;;;;21.68;45.53;101297.19;6156822;23;19915;-78
2022/05/25 05:07:13;;;;;;;;;;;;;;;21.78;45.58;101302.22;6156763;23;20277;-78
2022/05/25 05:09:40;;;;;;;;;;;;;;;21.85;45.40;101305.59;6106316;23;19948;-76
2022/05/25 05:12:05;;;;;;;;;;;;;;;21.91;45.36;101313.31;6155640;23;19916;-76
2022/05/25 05:14:31;;;;;;;;;;;;;;;21.98;45.26;101309.69;6157012;23;19913;-75
2022/05/25 05:17:00;;;;;;;;;;;;;;;22.02;44.97;101299.16;6130693;23;19912;-76
2022/05/25 05:19:26;;;;;;;;;;;;;;;22.08;44.96;101296.38;6156925;23;19909;-78
2022/05/25 05:21:54;;;;;;;;;;;;;;;22.14;44.87;101304.13;6130902;23;19912;-79
2022/05/25 05:24:19;;;;;;;;;;;;;;;22.65;43.69;101301.28;6130945;23;19967;-81
2022/05/25 05:26:44;;;;;;;;;;;;;;;23.84;40.96;101299.13;6106373;23;19955;-80
2022/05/25 05:29:10;;;;;;;;;;;;;;;24.97;38.25;101296.53;6130698;23;20340;-80
2022/05/25 05:31:35;;;;;;;;;;;;;;;25.92;35.83;101292.41;6131133;23;19987;-79
2022/05/25 05:34:00;;;;;;;;;;;;;;;26.27;34.93;101283.97;6106064;23;19912;-79
2022/05/25 05:36:28;;;;;;;;;;;;;;;26.37;34.54;101297.69;6106305;23;19917;-79
2022/05/25 05:38:59;;;;;;;;;;;;;;;26.45;34.11;101295.59;6130531;23;19909;-79
2022/05/25 05:41:28;;;;;;;;;;;;;;;26.61;33.59;101300.28;6130820;23;19912;-81
2022/05/25 05:43:53;;;;;;;;;;;;;;;26.80;32.72;101295.97;6130482;23;20280;-79
2022/05/25 05:46:19;;;;;;;;;;;;;;;27.06;32.60;101301.94;6106000;23;19912;-78
2022/05/25 05:48:45;;;;;;;;;;;;;;;27.18;32.35;101306.72;6106356;23;20007;-78
2022/05/25 05:51:11;;;;;;;;;;;;;;;27.23;32.32;101302.13;6130677;23;19909;-79
2022/05/25 05:53:36;;;;;;;;;;;;;;;27.47;32.00;101304.63;6130312;23;19912;-79
2022/05/25 05:56:05;;;;;;;;;;;;;;;27.47;31.70;101315.22;6105934;23;20000;-78
2022/05/25 05:58:31;;;;;;;;;;;;;;;27.93;30.84;101301.75;6130527;23;19920;-79
2022/05/25 06:00:56;;;;;;;;;;;;;;;27.96;31.24;101306.88;6131136;23;19909;-79
2022/05/25 06:03:22;;;;;;;;;;;;;;;25.91;34.24;101314.41;6132628;23;20292;-78
2022/05/25 06:05:47;;;;;;;;;;;;;;;26.23;34.20;101314.03;6132810;23;19913;-78
2022/05/25 06:08:18;;;;;;;;;;;;;;;25.42;35.86;101312.59;6132821;23;19919;-79
2022/05/25 06:10:44;;;;;;;;;;;;;;;24.87;37.10;101311.81;6132749;23;19908;-79
2022/05/25 06:13:09;;;;;;;;;;;;;;;23.29;40.40;101322.47;6159050;23;20410;-81
2022/05/25 06:21:03;;;;;;;;;;;;;;;22.34;42.50;101322.06;6158594;23;19959;-81
2022/05/25 06:23:28;;;;;;;;;;;;;;;22.28;42.60;101335.34;6158601;23;20325;-80
2022/05/25 06:25:54;;;;;;;;;;;;;;;22.08;43.25;101328.72;6132435;23;20302;-81
2022/05/25 06:28:19;;;;;;;;;;;;;;;22.07;43.15;101339.22;6132379;23;19908;-80
2022/05/25 06:30:45;;;;;;;;;;;;;;;22.02;43.21;101338.47;6108111;23;19917;-80
2022/05/25 06:33:10;;;;;;;;;;;;;;;21.93;43.55;101342.97;6132634;23;19908;-80
2022/05/25 06:35:36;;;;;;;;;;;;;;;21.84;43.80;101345.78;6132224;23;20000;-85
2022/05/25 06:38:02;;;;;;;;;;;;;;;21.78;43.71;101338.91;6132661;23;19913;-85
2022/05/25 06:40:27;;;;;;;;;;;;;;;21.84;43.62;101343.16;6132112;23;20244;-83
2022/05/25 06:42:53;;;;;;;;;;;;;;;21.81;43.69;101342.34;6132458;23;19987;-83
2022/05/25 06:45:18;;;;;;;;;;;;;;;21.82;43.76;101346.69;6132149;23;19908;-85
2022/05/25 06:47:43;;;;;;;;;;;;;;;22.21;42.81;101342.44;6107931;23;19963;-84
2022/05/25 06:50:09;;;;;;;;;;;;;;;22.38;42.50;101342.97;6132040;23;19912;-84
2022/05/25 06:52:34;;;;;;;;;;;;;;;22.28;42.68;101351.06;6132572;23;19916;-85
2022/05/25 06:55:00;;;;;;;;;;;;;;;22.58;42.29;101347.78;6107885;23;19913;-84
2022/05/25 06:57:25;;;;;;;;;;;;;;;22.70;41.67;101349.22;6132171;23;19960;-85
2022/05/25 06:59:51;;;;;;;;;;;;;;;23.25;40.86;101348.84;6108018;23;19967;-84
2022/05/25 07:02:16;;;;;;;;;;;;;;;23.18;40.98;101349.00;6158578;23;19909;-83
2022/05/25 07:04:41;;;;;;;;;;;;;;;23.72;39.67;101347.59;6108437;23;20314;-84
2022/05/25 07:07:07;;;;;;;;;;;;;;;23.35;40.23;101356.44;6107652;23;20214;-84
2022/05/25 07:09:33;;;;;;;;;;;;;;;23.23;40.84;101355.91;6132179;23;19908;-83
2022/05/25 07:11:59;;;;;;;;;;;;;;;23.05;41.32;101359.84;6131767;23;19908;-83
2022/05/25 07:14:24;;;;;;;;;;;;;;;22.74;41.98;101350.03;6131588;23;19934;-84
2022/05/25 07:16:50;;;;;;;;;;;;;;;23.49;40.10;101355.22;6108021;23;19917;-84
2022/05/25 07:19:15;;;;;;;;;;;;;;;22.75;41.94;101351.75;6107841;23;20326;-85
2022/05/25 07:21:40;;;;;;;;;;;;;;;22.53;42.38;101359.25;6132602;23;20245;-84
2022/05/25 07:24:06;;;;;;;;;;;;;;;22.70;41.91;101357.09;6132256;23;19971;-84
2022/05/25 07:26:33;;;;;;;;;;;;;;;22.51;42.04;101364.50;6159563;23;19919;-83
2022/05/25 07:28:58;;;;;;;;;;;;;;;22.98;40.91;101361.72;6132899;23;19916;-78
2022/05/25 07:31:30;;;;;;;;;;;;;;;23.04;40.88;101363.34;6108018;23;20015;-80
2022/05/25 07:34:01;;;;;;;;;;;;;;;22.67;41.68;101364.16;6132284;23;19913;-78
2022/05/25 07:36:27;;;;;;;;;;;;;;;22.53;42.28;101377.59;6157968;23;20067;-79
2022/05/25 07:38:54;;;;;;;;;;;;;;;22.40;42.74;101374.38;6107508;23;19991;-80
2022/05/25 07:41:20;;;;;;;;;;;;;;;22.55;41.97;101370.56;6131947;23;20222;-79
2022/05/25 07:43:47;;;;;;;;;;;;;;;22.32;42.58;101381.53;6131877;23;19963;-80
2022/05/25 07:46:12;;;;;;;;;;;;;;;22.29;42.70;101374.59;6157661;23;19908;-79
2022/05/25 07:48:38;;;;;;;;;;;;;;;22.43;42.36;101370.81;6131830;23;19909;-79
2022/05/25 07:51:03;;;;;;;;;;;;;;;22.75;41.25;101373.59;6157724;23;19909;-79
2022/05/25 07:56:14;;;;;;;;;;;;;;;22.77;41.37;101377.06;6157430;23;20344;-79
2022/05/25 07:58:39;;;;;;;;;;;;;;;22.41;42.11;101375.22;6107195;23;19912;-79
2022/05/25 08:01:10;;;;;;;;;;;;;;;22.51;41.61;101369.75;6131192;23;20381;-79
2022/05/25 08:06:19;;;;;;;;;;;;;;;22.21;42.61;101381.75;6157527;23;19916;-79
2022/05/25 08:08:45;;;;;;;;;;;;;;;22.20;42.98;101374.75;6131274;23;19916;-79
2022/05/25 08:11:11;;;;;;;;;;;;;;;22.16;42.70;101379.19;6157461;23;19915;-79
2022/05/25 08:13:41;;;;;;;;;;;;;;;22.10;42.89;101381.97;6131378;23;19908;-79
2022/05/25 08:16:08;;;;;;;;;;;;;;;22.04;42.91;101392.56;6131169;23;19919;-79
2022/05/25 08:18:34;;;;;;;;;;;;;;;22.21;42.29;101386.09;6131595;23;19983;-80
2022/05/25 08:20:59;;;;;;;;;;;;;;;22.21;42.15;101381.75;6157464;23;20277;-79
2022/05/25 08:23:24;;;;;;;;;;;;;;;22.52;41.35;101373.28;6157253;23;19924;-80
2022/05/25 08:25:49;;;;;;;;;;;;;;;22.74;40.62;101374.50;6155657;23;19940;-79
2022/05/25 08:28:15;;;;;;;;;;;;;;;22.75;40.54;101373.59;6157779;23;19909;-79
2022/05/25 08:30:41;;;;;;;;;;;;;;;22.84;40.29;101379.53;6155673;23;19909;-79
2022/05/25 08:33:07;;;;;;;;;;;;;;;22.65;40.84;101379.97;6130972;23;19947;-79
2022/05/25 08:35:32;;;;;;;;;;;;;;;22.61;40.93;101380.94;6106710;23;19963;-79
2022/05/25 08:37:58;;;;;;;;;;;;;;;22.59;40.70;101383.56;6131332;23;19919;-78
2022/05/25 08:40:28;;;;;;;;;;;;;;;22.55;40.69;101381.06;6130952;23;19964;-79
2022/05/25 08:43:07;;;;;;;;;;;;;;;22.63;40.25;101388.78;6157475;23;19979;-78
2022/05/25 08:45:41;;;;;;;;;;;;;;;22.65;40.27;101389.59;6131409;23;20297;-78
2022/05/25 08:48:08;;;;;;;;;;;;;;;22.68;40.08;101387.75;6131170;23;19908;-79
2022/05/25 08:50:33;;;;;;;;;;;;;;;22.55;40.31;101389.78;6131251;23;19940;-79
2022/05/25 08:53:00;;;;;;;;;;;;;;;22.56;40.33;101394.16;6106547;23;20321;-79
2022/05/25 08:55:35;;;;;;;;;;;;;;;22.53;40.38;101382.84;6130801;23;19964;-79
2022/05/25 08:58:01;;;;;;;;;;;;;;;22.49;40.86;101389.91;6131390;23;19916;-80
2022/05/25 09:00:26;;;;;;;;;;;;;;;22.47;40.49;101394.34;6131444;23;19915;-79
2022/05/25 09:02:58;;;;;;;;;;;;;;;22.61;39.76;101395.81;6131671;23;19909;-79
2022/05/25 09:05:27;;;;;;;;;;;;;;;22.64;39.61;101412.31;6132119;23;19909;-79
2022/05/25 09:08:01;;;;;;;;;;;;;;;22.61;39.41;101416.81;6131378;23;19908;-78
2022/05/25 09:10:28;;;;;;;;;;;;;;;22.57;39.56;101410.75;6131527;23;20329;-80
2022/05/25 09:12:59;;;;;;;;;;;;;;;22.54;39.33;101421.31;6132282;23;20340;-79
2022/05/25 09:15:30;;;;;;;;;;;;;;;22.55;40.37;101423.03;6131901;23;19916;-79
2022/05/25 09:18:01;;;;;;;;;;;;;;;22.55;40.16;101421.25;6156472;23;20329;-79
2022/05/25 09:20:36;;;;;;;;;;;;;;;22.63;38.59;101417.63;6131105;23;19916;-80
2022/05/25 09:23:01;;;;;;;;;;;;;;;22.63;38.91;101417.63;6146503;23;19916;-83
2022/05/25 09:25:27;;;;;;;;;;;;;;;22.67;38.53;101404.41;6123299;23;19923;-83
2022/05/25 09:27:52;;;;;;;;;;;;;;;22.70;38.78;101404.34;6149203;23;19919;-82
2022/05/25 09:30:18;;;;;;;;;;;;;;;22.69;38.97;101410.50;6149101;23;19908;-83
2022/05/25 09:32:47;;;;;;;;;;;;;;;22.63;39.00;101431.59;6149817;23;20301;-86
2022/05/25 09:35:15;;;;;;;;;;;;;;;22.55;38.11;101420.41;6133080;23;19908;-84
2022/05/25 09:37:58;;;;;;;;;;;;;;;22.52;38.06;101415.22;6159266;23;20245;-83
2022/05/25 09:40:40;;;;;;;;;;;;;;;22.43;38.40;101425.88;6133135;23;19940;-83
2022/05/25 09:43:08;;;;;;;;;;;;;;;22.41;37.67;101443.41;6131778;23;20340;-83
2022/05/25 09:45:55;;;;;;;;;;;;;;;22.37;37.92;101432.16;6131506;23;19909;-82
2022/05/25 09:48:30;;;;;;;;;;;;;;;22.32;37.32;101445.34;6130298;23;19916;-82
2022/05/25 09:51:04;;;;;;;;;;;;;;;22.29;36.19;101440.16;6131070;23;19912;-82
2022/05/25 09:53:38;;;;;;;;;;;;;;;22.25;36.05;101441.09;6131195;23;19915;-83
2022/05/25 09:56:06;;;;;;;;;;;;;;;22.23;36.49;101435.03;6131565;23;19913;-83
2022/05/25 09:58:34;;;;;;;;;;;;;;;22.20;36.88;101448.16;6131480;23;19908;-82
2022/05/25 10:01:03;;;;;;;;;;;;;;;22.15;37.03;101452.66;6132015;23;19908;-83
2022/05/25 10:03:42;;;;;;;;;;;;;;;22.12;37.20;101452.69;6138407;23;20317;-82
2022/05/25 10:06:26;;;;;;;;;;;;;;;22.09;37.76;101458.84;6140312;23;19924;-83
2022/05/25 10:09:05;;;;;;;;;;;;;;;22.10;37.56;101462.34;6139750;23;19908;-83
2022/05/25 10:11:38;;;;;;;;;;;;;;;22.06;38.12;101465.91;6139982;23;19913;-83
2022/05/25 10:14:18;;;;;;;;;;;;;;;22.03;38.17;101463.34;6166158;23;19940;-83
2022/05/25 10:16:43;;;;;;;;;;;;;;;22.01;38.20;101454.66;6134140;23;19920;-83
2022/05/25 10:19:12;;;;;;;;;;;;;;;21.99;38.77;101462.53;6131797;23;19909;-83
2022/05/25 10:21:38;;;;;;;;;;;;;;;22.00;38.42;101463.41;6157176;23;19909;-82
2022/05/25 10:24:14;;;;;;;;;;;;;;;22.00;38.90;101453.78;6131036;23;19940;-83
2022/05/25 10:26:44;;;;;;;;;;;;;;;22.00;38.70;101460.78;6131032;23;20308;-83
2022/05/25 10:29:11;;;;;;;;;;;;;;;21.98;39.10;101459.06;6136530;23;19983;-83
2022/05/25 10:37:25;;;;;;;;;;;;;;;21.95;39.25;101471.38;6156656;23;19919;-81
2022/05/25 10:39:53;;;;;;;;;;;;;;;21.94;38.99;101465.22;6130690;23;19936;-81
2022/05/25 10:42:19;;;;;;;;;;;;;;;21.94;39.19;101461.75;6130715;23;19930;-81
2022/05/25 10:44:52;;;;;;;;;;;;;;;21.93;38.96;101475.75;6130310;23;19919;-76
2022/05/25 10:47:33;;;;;;;;;;;;;;;21.91;38.78;101464.44;6157032;23;19909;-76
2022/05/25 10:50:00;;;;;;;;;;;;;;;21.90;38.73;101457.47;6131983;23;19908;-76
2022/05/25 10:52:32;;;;;;;;;;;;;;;21.90;38.75;101447.84;6132269;23;19919;-76
2022/05/25 10:54:57;;;;;;;;;;;;;;;21.90;38.45;101455.69;6131940;23;19909;-76
2022/05/25 10:57:22;;;;;;;;;;;;;;;21.90;38.71;101458.31;6132156;23;19913;-76
2022/05/25 11:00:20;;;;;;;;;;;;;;;21.92;38.36;101461.78;6133183;23;20348;-77
2022/05/25 11:03:19;;;;;;;;;;;;;;;21.92;38.45;101466.16;6084076;23;19995;-77
2022/05/25 11:05:44;;;;;;;;;;;;;;;21.91;38.49;101460.06;6132078;23;19919;-76
2022/05/25 11:08:28;;;;;;;;;;;;;;;21.90;38.31;101458.31;6131875;23;20241;-76
2022/05/25 11:11:12;;;;;;;;;;;;;;;21.90;38.68;101455.69;6132042;23;19932;-76
2022/05/25 11:13:56;;;;;;;;;;;;;;;21.91;38.80;101460.06;6158269;23;19916;-76
2022/05/25 11:16:31;;;;;;;;;;;;;;;21.93;38.58;101457.41;6132152;23;19913;-76
2022/05/25 11:19:03;;;;;;;;;;;;;;;21.94;38.37;101459.13;6131989;23;19909;-76
2022/05/25 11:21:50;;;;;;;;;;;;;;;21.94;38.44;101474.84;6131822;23;19909;-76
2022/05/25 11:24:28;;;;;;;;;;;;;;;21.94;38.61;101461.75;6131613;23;19916;-76
2022/05/25 11:27:04;;;;;;;;;;;;;;;21.92;38.39;101451.28;6131511;23;20336;-76
2022/05/25 11:29:48;;;;;;;;;;;;;;;21.95;38.19;101460.88;6131611;23;19915;-76
2022/05/25 11:32:33;;;;;;;;;;;;;;;21.97;38.36;101465.19;6131609;23;19908;-76
2022/05/25 11:35:02;;;;;;;;;;;;;;;21.98;37.92;101471.28;6117720;23;19908;-76
2022/05/25 11:37:36;;;;;;;;;;;;;;;21.97;38.19;101494.03;6158354;23;19908;-77
2022/05/25 11:40:33;;;;;;;;;;;;;;;21.97;37.97;101459.97;6156195;23;19932;-76
2022/05/25 11:43:11;;;;;;;;;;;;;;;21.97;37.97;101477.41;6083477;23;19943;-76
2022/05/25 11:45:42;;;;;;;;;;;;;;;21.95;37.79;101448.63;6131537;23;19995;-76
2022/05/25 11:48:10;;;;;;;;;;;;;;;21.98;37.98;101461.66;6131332;23;19913;-76
2022/05/25 11:50:38;;;;;;;;;;;;;;;22.02;37.68;101445.91;6131445;23;19909;-76
2022/05/25 11:53:21;;;;;;;;;;;;;;;22.05;37.89;101451.09;6131367;23;19908;-75
2022/05/25 11:55:46;;;;;;;;;;;;;;;22.05;37.98;101451.09;6157398;23;20313;-75
2022/05/25 11:58:18;;;;;;;;;;;;;;;22.05;38.24;101445.84;6131615;23;19912;-75
2022/05/25 12:00:57;;;;;;;;;;;;;;;22.05;38.59;101454.56;6159512;23;19975;-75
2022/05/25 12:03:28;;;;;;;;;;;;;;;22.07;38.07;101454.53;6131787;23;19915;-76
2022/05/25 12:06:00;;;;;;;;;;;;;;;22.09;38.29;101473.72;6131127;23;19912;-76
2022/05/25 12:08:26;;;;;;;;;;;;;;;22.10;38.21;101449.22;6131520;23;19915;-76
2022/05/25 12:11:12;;;;;;;;;;;;;;;22.09;38.15;101447.50;6131326;23;19908;-76
2022/05/25 12:13:42;;;;;;;;;;;;;;;22.09;38.15;101445.75;6155870;23;19936;-76
2022/05/25 12:16:14;;;;;;;;;;;;;;;22.10;37.99;101459.72;6131248;23;19965;-76
2022/05/25 12:18:45;;;;;;;;;;;;;;;22.09;38.03;101458.00;6131305;23;19916;-75
2022/05/25 12:21:16;;;;;;;;;;;;;;;22.09;38.20;101464.09;6131782;23;19930;-75
2022/05/25 12:24:11;;;;;;;;;;;;;;;22.08;38.14;101458.88;6157343;23;19916;-75
2022/05/25 12:26:37;;;;;;;;;;;;;;;22.10;37.99;101462.34;6137466;23;19916;-77
2022/05/25 12:29:11;;;;;;;;;;;;;;;22.11;38.03;101456.22;6131928;23;20272;-76
2022/05/25 12:31:37;;;;;;;;;;;;;;;22.10;38.20;101459.72;6131004;23;19943;-75
2022/05/25 12:34:03;;;;;;;;;;;;;;;22.09;38.54;101458.84;6106620;23;19912;-76
2022/05/25 12:36:30;;;;;;;;;;;;;;;22.09;38.64;101455.38;6157442;23;19917;-75
2022/05/25 12:38:56;;;;;;;;;;;;;;;22.09;38.65;101458.84;6131345;23;20233;-76
2022/05/25 12:41:27;;;;;;;;;;;;;;;22.10;38.65;101464.94;6106730;23;19917;-76
2022/05/25 12:43:54;;;;;;;;;;;;;;;22.10;39.04;101457.97;6130921;23;19909;-75
2022/05/25 12:49:06;;;;;;;;;;;;;;;22.08;39.12;101453.63;6157765;23;19924;-75
2022/05/25 12:51:32;;;;;;;;;;;;;;;22.07;38.86;101455.41;6130780;23;19909;-75
2022/05/25 12:53:59;;;;;;;;;;;;;;;22.10;38.91;101457.09;6156730;23;19909;-76
2022/05/25 12:56:24;;;;;;;;;;;;;;;22.10;39.08;101457.09;6130775;23;19935;-76
2022/05/25 12:58:52;;;;;;;;;;;;;;;22.10;38.97;101452.75;6130716;23;19995;-76
2022/05/25 13:01:26;;;;;;;;;;;;;;;22.12;39.13;101453.56;6130824;23;19959;-76
2022/05/25 13:03:51;;;;;;;;;;;;;;;22.14;39.17;101458.75;6156901;23;19959;-76
2022/05/25 13:06:22;;;;;;;;;;;;;;;22.14;39.17;101457.00;6131226;23;20230;-76
2022/05/25 13:08:51;;;;;;;;;;;;;;;22.14;39.25;101467.47;6130875;23;19983;-76